Time,TemperatureF,DewpointF,PressureIn,WindDirection,WindDirectionDegrees,WindSpeedMPH,WindSpeedGustMPH,Humidity,HourlyPrecipIn,Conditions,Clouds,dailyrainin,SoftwareType,DateUTC
2013-07-08 00:04:00,65.1,64.8,30.10,West,270,1.7,-999.0,99,-99.99,,,0.00,Acu-Link.com,2013-07-08 04:04:00,
2013-07-08 00:20:00,64.9,64.6,30.10,West,270,2.2,-999.0,99,-99.99,,,0.00,Acu-Link.com,2013-07-08 04:20:00,
2013-07-08 00:35:00,64.8,64.5,30.10,WNW,292,2.7,-999.0,99,-99.99,,,0.00,Acu-Link.com,2013-07-08 04:35:00,
2013-07-08 00:50:00,64.4,64.1,30.10,West,270,0.0,-999.0,99,-99.99,,,0.00,Acu-Link.com,2013-07-08 04:50:00,
2013-07-08 01:05:00,64.0,63.7,30.10,West,270,0.0,-999.0,99,-99.99,,,0.00,Acu-Link.com,2013-07-08 05:05:00,
2013-07-08 01:21:00,63.7,63.4,30.09,WSW,247,0.0,-999.0,99,-99.99,,,0.00,Acu-Link.com,2013-07-08 05:21:00,
2013-07-08 01:36:00,63.7,63.4,30.09,SW,225,1.7,-999.0,99,-99.99,,,0.00,Acu-Link.com,2013-07-08 05:36:00,
2013-07-08 01:51:00,63.7,63.4,30.08,SSW,202,1.7,-999.0,99,-99.99,,,0.00,Acu-Link.com,2013-07-08 05:51:00,
2013-07-08 02:06:00,63.7,63.4,30.09,West,270,1.7,-999.0,99,-99.99,,,0.00,Acu-Link.com,2013-07-08 06:06:00,
2013-07-08 02:22:00,63.9,63.6,30.09,North,0,1.7,-999.0,99,-99.99,,,0.00,Acu-Link.com,2013-07-08 06:22:00,
2013-07-08 02:37:00,64.0,63.7,30.09,West,270,1.7,-999.0,99,-99.99,,,0.00,Acu-Link.com,2013-07-08 06:37:00,
2013-07-08 02:52:00,64.2,63.9,30.09,West,270,1.7,-999.0,99,-99.99,,,0.00,Acu-Link.com,2013-07-08 06:52:00,
2013-07-08 03:07:00,64.2,63.9,30.09,NNW,337,4.2,-999.0,99,-99.99,,,0.00,Acu-Link.com,2013-07-08 07:07:00,
2013-07-08 03:22:00,64.2,63.9,30.10,West,270,1.7,-999.0,99,-99.99,,,0.00,Acu-Link.com,2013-07-08 07:22:00,
2013-07-08 03:38:00,64.0,63.7,30.08,WNW,292,2.2,-999.0,99,-99.99,,,0.00,Acu-Link.com,2013-07-08 07:38:00,
2013-07-08 03:53:00,64.0,63.7,30.08,WSW,247,0.0,-999.0,99,-99.99,,,0.00,Acu-Link.com,2013-07-08 07:53:00,
2013-07-08 04:08:00,63.9,63.6,30.08,West,270,2.7,-999.0,99,-99.99,,,0.00,Acu-Link.com,2013-07-08 08:08:00,
2013-07-08 04:23:00,63.9,63.6,30.08,NNW,337,0.0,-999.0,99,-99.99,,,0.00,Acu-Link.com,2013-07-08 08:23:00,
2013-07-08 04:39:00,63.9,63.6,30.09,WNW,292,2.2,-999.0,99,-99.99,,,0.00,Acu-Link.com,2013-07-08 08:39:00,
2013-07-08 04:54:00,64.2,63.9,30.08,WSW,247,1.7,-999.0,99,-99.99,,,0.00,Acu-Link.com,2013-07-08 08:54:00,
2013-07-08 05:09:00,63.9,63.6,30.09,WSW,247,1.7,-999.0,99,-99.99,,,0.00,Acu-Link.com,2013-07-08 09:09:00,
2013-07-08 05:24:00,63.3,63.0,30.09,West,270,0.0,-999.0,99,-99.99,,,0.00,Acu-Link.com,2013-07-08 09:24:00,
2013-07-08 05:39:00,63.1,62.8,30.10,SSW,202,1.7,-999.0,99,-99.99,,,0.00,Acu-Link.com,2013-07-08 09:39:00,
2013-07-08 05:54:00,63.3,63.0,30.09,West,270,0.0,-999.0,99,-99.99,,,0.00,Acu-Link.com,2013-07-08 09:54:00,
2013-07-08 06:10:00,63.5,63.2,30.09,WNW,292,1.1,-999.0,99,-99.99,,,0.00,Acu-Link.com,2013-07-08 10:10:00,
2013-07-08 06:25:00,63.1,62.8,30.10,South,180,0.0,-999.0,99,-99.99,,,0.00,Acu-Link.com,2013-07-08 10:25:00,
2013-07-08 06:41:00,63.3,63.0,30.10,SSW,202,2.2,-999.0,99,-99.99,,,0.00,Acu-Link.com,2013-07-08 10:41:00,
2013-07-08 06:56:00,63.9,63.6,30.10,West,270,0.0,-999.0,99,-99.99,,,0.00,Acu-Link.com,2013-07-08 10:56:00,
2013-07-08 07:11:00,64.2,63.9,30.10,WSW,247,1.7,-999.0,99,-99.99,,,0.00,Acu-Link.com,2013-07-08 11:11:00,
2013-07-08 07:27:00,64.0,63.7,30.11,SW,225,2.7,-999.0,99,-99.99,,,0.00,Acu-Link.com,2013-07-08 11:27:00,
2013-07-08 07:42:00,63.9,63.6,30.11,West,270,0.0,-999.0,99,-99.99,,,0.00,Acu-Link.com,2013-07-08 11:42:00,
2013-07-08 07:57:00,64.4,64.1,30.12,West,270,2.7,-999.0,99,-99.99,,,0.00,Acu-Link.com,2013-07-08 11:57:00,
2013-07-08 08:12:00,64.6,64.3,30.12,West,270,2.7,-999.0,99,-99.99,,,0.00,Acu-Link.com,2013-07-08 12:12:00,
2013-07-08 08:27:00,64.9,64.6,30.13,West,270,2.7,-999.0,99,-99.99,,,0.00,Acu-Link.com,2013-07-08 12:27:00,
2013-07-08 08:43:00,64.9,64.6,30.13,WNW,292,4.2,-999.0,99,-99.99,,,0.00,Acu-Link.com,2013-07-08 12:43:00,
2013-07-08 08:58:00,65.5,64.9,30.13,WNW,292,4.2,-999.0,98,-99.99,,,0.00,Acu-Link.com,2013-07-08 12:58:00,
2013-07-08 09:13:00,65.8,64.0,30.14,NNW,337,2.7,-999.0,94,-99.99,,,0.00,Acu-Link.com,2013-07-08 13:13:00,
2013-07-08 09:28:00,65.8,64.3,30.14,WNW,292,2.7,-999.0,95,-99.99,,,0.00,Acu-Link.com,2013-07-08 13:28:00,
2013-07-08 09:44:00,65.7,64.5,30.15,NW,315,3.2,-999.0,96,-99.99,,,0.00,Acu-Link.com,2013-07-08 13:44:00,
2013-07-08 09:59:00,66.2,64.4,30.15,West,270,0.0,-999.0,94,-99.99,,,0.00,Acu-Link.com,2013-07-08 13:59:00,
2013-07-08 10:14:00,68.5,66.1,30.14,NNE,22,2.7,-999.0,92,-99.99,,,0.00,Acu-Link.com,2013-07-08 14:14:00,
2013-07-08 10:29:00,68.2,66.7,30.14,West,270,4.7,-999.0,95,-99.99,,,0.00,Acu-Link.com,2013-07-08 14:29:00,
2013-07-08 10:45:00,70.2,66.5,30.14,NNW,337,2.7,-999.0,88,-99.99,,,0.00,Acu-Link.com,2013-07-08 14:45:00,
2013-07-08 11:00:00,70.3,66.2,30.15,SW,225,7.3,-999.0,87,-99.99,,,0.00,Acu-Link.com,2013-07-08 15:00:00,
2013-07-08 11:15:00,70.0,66.6,30.14,WSW,247,5.3,-999.0,89,-99.99,,,0.00,Acu-Link.com,2013-07-08 15:15:00,
2013-07-08 11:30:00,71.2,66.5,30.14,SW,225,3.2,-999.0,85,-99.99,,,0.00,Acu-Link.com,2013-07-08 15:30:00,
2013-07-08 11:46:00,71.4,68.0,30.14,West,270,4.2,-999.0,89,-99.99,,,0.00,Acu-Link.com,2013-07-08 15:46:00,
2013-07-08 12:01:00,72.5,67.0,30.14,SW,225,5.8,-999.0,83,-99.99,,,0.00,Acu-Link.com,2013-07-08 16:01:00,
2013-07-08 12:17:00,74.1,67.5,30.13,NNE,22,4.7,-999.0,80,-99.99,,,0.00,Acu-Link.com,2013-07-08 16:17:00,
2013-07-08 12:32:00,74.5,66.8,30.13,ENE,67,4.2,-999.0,77,-99.99,,,0.00,Acu-Link.com,2013-07-08 16:32:00,
2013-07-08 12:47:00,75.2,67.1,30.13,South,180,5.3,-999.0,76,-99.99,,,0.00,Acu-Link.com,2013-07-08 16:47:00,
2013-07-08 13:02:00,75.6,67.5,30.14,West,270,3.7,-999.0,76,-99.99,,,0.00,Acu-Link.com,2013-07-08 17:02:00,
2013-07-08 13:17:00,76.3,68.2,30.13,NNE,22,4.2,-999.0,76,-99.99,,,0.00,Acu-Link.com,2013-07-08 17:17:00,
2013-07-08 13:33:00,74.1,66.8,30.13,West,270,5.3,-999.0,78,-99.99,,,0.00,Acu-Link.com,2013-07-08 17:33:00,
2013-07-08 13:48:00,77.4,68.4,30.12,ESE,112,5.8,-999.0,74,-99.99,,,0.00,Acu-Link.com,2013-07-08 17:48:00,
2013-07-08 14:18:00,77.9,68.5,30.11,West,270,5.3,-999.0,73,-99.99,,,0.00,Acu-Link.com,2013-07-08 18:18:00,
2013-07-08 14:33:00,77.4,68.4,30.11,WNW,292,3.2,-999.0,74,-99.99,,,0.00,Acu-Link.com,2013-07-08 18:33:00,
2013-07-08 15:19:00,78.4,69.8,30.11,NW,315,3.7,-999.0,75,-99.99,,,0.00,Acu-Link.com,2013-07-08 19:19:00,
2013-07-08 15:35:00,77.0,68.5,30.09,West,270,2.7,-999.0,75,-99.99,,,0.00,Acu-Link.com,2013-07-08 19:35:00,
2013-07-08 16:05:00,77.9,68.9,30.09,West,270,4.2,-999.0,74,-99.99,,,0.00,Acu-Link.com,2013-07-08 20:05:00,
2013-07-08 16:51:00,75.7,68.3,30.09,NW,315,4.2,-999.0,78,-99.99,,,0.00,Acu-Link.com,2013-07-08 20:51:00,
2013-07-08 17:21:00,77.2,69.4,30.09,West,270,4.2,-999.0,77,-99.99,,,0.00,Acu-Link.com,2013-07-08 21:21:00,
2013-07-08 17:37:00,77.7,69.5,30.08,NNW,337,3.7,-999.0,76,-99.99,,,0.00,Acu-Link.com,2013-07-08 21:37:00,
2013-07-08 17:52:00,78.8,69.4,30.09,West,270,4.7,-999.0,73,-99.99,,,0.00,Acu-Link.com,2013-07-08 21:52:00,
2013-07-08 18:07:00,77.4,69.2,30.09,WNW,292,3.7,-999.0,76,-99.99,,,0.00,Acu-Link.com,2013-07-08 22:07:00,
2013-07-08 18:22:00,76.1,69.8,30.08,SSE,157,3.2,-999.0,81,-99.99,,,0.00,Acu-Link.com,2013-07-08 22:22:00,
2013-07-08 18:53:00,76.6,70.0,30.08,West,270,2.2,-999.0,80,-99.99,,,0.00,Acu-Link.com,2013-07-08 22:53:00,
2013-07-08 19:53:00,73.2,69.1,30.09,WSW,247,0.0,-999.0,87,-99.99,,,0.00,Acu-Link.com,2013-07-08 23:53:00,
2013-07-08 20:09:00,72.5,69.1,30.10,WSW,247,3.7,-999.0,89,-99.99,,,0.00,Acu-Link.com,2013-07-09 00:09:00,
2013-07-08 20:54:00,70.2,68.7,30.11,ESE,112,1.1,-999.0,95,-99.99,,,0.00,Acu-Link.com,2013-07-09 00:54:00,
2013-07-08 21:25:00,68.9,68.3,30.11,SE,135,0.0,-999.0,98,-99.99,,,0.00,Acu-Link.com,2013-07-09 01:25:00,
2013-07-08 21:40:00,68.4,68.1,30.12,ESE,112,0.0,-999.0,99,-99.99,,,0.00,Acu-Link.com,2013-07-09 01:40:00,
2013-07-08 21:55:00,68.2,67.9,30.12,SSE,157,1.7,-999.0,99,-99.99,,,0.00,Acu-Link.com,2013-07-09 01:55:00,
2013-07-08 22:56:00,67.5,67.2,30.13,WNW,292,3.7,-999.0,99,-99.99,,,0.00,Acu-Link.com,2013-07-09 02:56:00,
2013-07-08 23:11:00,67.5,67.2,30.13,West,270,1.7,-999.0,99,-99.99,,,0.00,Acu-Link.com,2013-07-09 03:11:00,
2013-07-08 23:42:00,67.1,66.8,30.12,WNW,292,1.7,-999.0,99,-99.99,,,0.00,Acu-Link.com,2013-07-09 03:42:00,